sensor_id;sensor_type;location;lat;lon;timestamp;pressure;altitude;pressure_sealevel;temperature;humidity
2397;BME280;1209;48.410;9.054;2024-03-23T00:55:52;95564.59;;;14.27;98.87
2397;BME280;1209;48.410;9.054;2024-03-23T00:58:17;95560.00;;;14.23;99.15
2397;BME280;1209;48.410;9.054;2024-03-23T01:00:43;95560.59;;;14.18;99.63
2397;BME280;1209;48.410;9.054;2024-03-23T01:03:08;95549.28;;;14.24;99.36
2397;BME280;1209;48.410;9.054;2024-03-23T01:05:33;95550.09;;;14.25;98.96
2397;BME280;1209;48.410;9.054;2024-03-23T01:07:59;95544.19;;;14.29;99.02
2397;BME280;1209;48.410;9.054;2024-03-23T01:10:24;95534.41;;;14.36;98.52
2397;BME280;1209;48.410;9.054;2024-03-23T01:12:49;95535.88;;;14.32;99.04
2397;BME280;1209;48.410;9.054;2024-03-23T01:15:15;95536.31;;;14.29;99.24
2397;BME280;1209;48.410;9.054;2024-03-23T01:17:40;95536.78;;;14.44;98.63
2397;BME280;1209;48.410;9.054;2024-03-23T01:20:05;95535.56;;;14.47;98.29
2397;BME280;1209;48.410;9.054;2024-03-23T01:22:31;95534.31;;;14.49;98.05
2397;BME280;1209;48.410;9.054;2024-03-23T01:24:57;95532.72;;;14.48;98.89
2397;BME280;1209;48.410;9.054;2024-03-23T01:27:22;95532.88;;;14.54;98.50
2397;BME280;1209;48.410;9.054;2024-03-23T01:29:48;95529.28;;;14.48;98.60
2397;BME280;1209;48.410;9.054;2024-03-23T01:32:13;95525.13;;;14.59;98.50
2397;BME280;1209;48.410;9.054;2024-03-23T01:34:39;95518.28;;;14.58;98.80
2397;BME280;1209;48.410;9.054;2024-03-23T01:37:04;95519.50;;;14.55;98.99
2397;BME280;1209;48.410;9.054;2024-03-23T01:39:29;95514.41;;;14.60;98.51
2397;BME280;1209;48.410;9.054;2024-03-23T01:41:55;95514.41;;;14.60;99.13
2397;BME280;1209;48.410;9.054;2024-03-23T01:44:20;95502.50;;;14.58;98.99
2397;BME280;1209;48.410;9.054;2024-03-23T01:46:46;95504.84;;;14.66;98.91
2397;BME280;1209;48.410;9.054;2024-03-23T01:49:12;95489.59;;;14.56;99.03
2397;BME280;1209;48.410;9.054;2024-03-23T01:51:38;95489.03;;;14.72;98.64
2397;BME280;1209;48.410;9.054;2024-03-23T01:54:05;95482.31;;;14.76;98.15
2397;BME280;1209;48.410;9.054;2024-03-23T01:56:33;95480.69;;;14.75;98.35
2397;BME280;1209;48.410;9.054;2024-03-23T01:59:03;95482.53;;;14.75;98.63
2397;BME280;1209;48.410;9.054;2024-03-23T02:01:29;95474.19;;;14.78;97.83
2397;BME280;1209;48.410;9.054;2024-03-23T02:03:55;95473.97;;;14.79;98.46
2397;BME280;1209;48.410;9.054;2024-03-23T02:06:20;95463.25;;;14.81;98.56
2397;BME280;1209;48.410;9.054;2024-03-23T02:08:46;95474.41;;;14.76;98.34
2397;BME280;1209;48.410;9.054;2024-03-23T02:11:12;95448.06;;;14.83;98.31
2397;BME280;1209;48.410;9.054;2024-03-23T02:13:37;95450.91;;;14.82;98.22
2397;BME280;1209;48.410;9.054;2024-03-23T02:16:03;95453.75;;;14.80;98.33
2397;BME280;1209;48.410;9.054;2024-03-23T02:18:29;95442.66;;;14.78;98.53
2397;BME280;1209;48.410;9.054;2024-03-23T02:20:55;95435.94;;;14.82;98.54
2397;BME280;1209;48.410;9.054;2024-03-23T02:23:20;95439.22;;;14.77;98.96
2397;BME280;1209;48.410;9.054;2024-03-23T02:25:46;95427.09;;;14.76;98.94
2397;BME280;1209;48.410;9.054;2024-03-23T02:28:11;95430.31;;;14.78;98.84
2397;BME280;1209;48.410;9.054;2024-03-23T02:30:37;95419.50;;;14.87;98.71
2397;BME280;1209;48.410;9.054;2024-03-23T02:33:03;95419.28;;;14.88;98.18
2397;BME280;1209;48.410;9.054;2024-03-23T02:35:29;95421.91;;;14.88;98.64
2397;BME280;1209;48.410;9.054;2024-03-23T02:37:55;95418.25;;;14.89;99.13
2397;BME280;1209;48.410;9.054;2024-03-23T02:40:25;95416.50;;;14.83;99.93
2397;BME280;1209;48.410;9.054;2024-03-23T02:42:51;95418.69;;;14.86;99.20
2397;BME280;1209;48.410;9.054;2024-03-23T02:45:16;95425.56;;;14.87;99.15
2397;BME280;1209;48.410;9.054;2024-03-23T02:47:42;95417.22;;;14.90;99.02
2397;BME280;1209;48.410;9.054;2024-03-23T02:50:08;95412.84;;;14.84;99.76
2397;BME280;1209;48.410;9.054;2024-03-23T02:52:34;95403.28;;;14.90;99.51
2397;BME280;1209;48.410;9.054;2024-03-23T02:55:01;95399.94;;;14.83;100.00
2397;BME280;1209;48.410;9.054;2024-03-23T02:57:30;95405.06;;;14.77;100.00
2397;BME280;1209;48.410;9.054;2024-03-23T02:59:55;95402.44;;;14.77;100.00
2397;BME280;1209;48.410;9.054;2024-03-23T03:02:21;95395.44;;;14.71;100.00
2397;BME280;1209;48.410;9.054;2024-03-23T03:04:46;95402.50;;;14.71;100.00
2397;BME280;1209;48.410;9.054;2024-03-23T03:07:12;95395.06;;;14.68;100.00
2397;BME280;1209;48.410;9.054;2024-03-23T03:09:37;95393.59;;;14.72;100.00
2397;BME280;1209;48.410;9.054;2024-03-23T03:12:07;95396.22;;;14.72;100.00
2397;BME280;1209;48.410;9.054;2024-03-23T03:14:33;95403.91;;;14.73;100.00
2397;BME280;1209;48.410;9.054;2024-03-23T03:16:58;95399.44;;;14.74;100.00
2397;BME280;1209;48.410;9.054;2024-03-23T03:19:24;95393.59;;;14.72;100.00
2397;BME280;1209;48.410;9.054;2024-03-23T03:21:49;95400.91;;;14.70;100.00
2397;BME280;1209;48.410;9.054;2024-03-23T03:24:14;95391.13;;;14.59;100.00
2397;BME280;1209;48.410;9.054;2024-03-23T03:26:40;95404.69;;;14.56;100.00
2397;BME280;1209;48.410;9.054;2024-03-23T03:29:05;95399.59;;;14.42;100.00
2397;BME280;1209;48.410;9.054;2024-03-23T03:31:31;95405.19;;;14.28;100.00
2397;BME280;1209;48.410;9.054;2024-03-23T03:33:57;95412.34;;;14.21;100.00
2397;BME280;1209;48.410;9.054;2024-03-23T03:36:22;95403.50;;;14.15;100.00
2397;BME280;1209;48.410;9.054;2024-03-23T03:38:47;95408.94;;;13.95;100.00
2397;BME280;1209;48.410;9.054;2024-03-23T03:41:13;95401.84;;;13.77;100.00
2397;BME280;1209;48.410;9.054;2024-03-23T03:43:38;95396.53;;;13.59;100.00
2397;BME280;1209;48.410;9.054;2024-03-23T03:46:04;95393.59;;;13.49;100.00
2397;BME280;1209;48.410;9.054;2024-03-23T03:48:29;95388.19;;;13.44;100.00
2397;BME280;1209;48.410;9.054;2024-03-23T03:50:55;95378.44;;;13.26;100.00
2397;BME280;1209;48.410;9.054;2024-03-23T03:53:20;95377.44;;;13.20;100.00
2397;BME280;1209;48.410;9.054;2024-03-23T03:55:46;95374.69;;;13.40;100.00
2397;BME280;1209;48.410;9.054;2024-03-23T03:58:11;95371.31;;;13.33;100.00
2397;BME280;1209;48.410;9.054;2024-03-23T04:00:37;95363.56;;;13.45;100.00
2397;BME280;1209;48.410;9.054;2024-03-23T04:03:02;95359.28;;;13.50;100.00
2397;BME280;1209;48.410;9.054;2024-03-23T04:05:28;95343.91;;;13.54;100.00
2397;BME280;1209;48.410;9.054;2024-03-23T04:07:53;95344.13;;;13.52;100.00
2397;BME280;1209;48.410;9.054;2024-03-23T04:10:19;95329.72;;;13.62;100.00
2397;BME280;1209;48.410;9.054;2024-03-23T04:12:44;95306.69;;;13.64;100.00
2397;BME280;1209;48.410;9.054;2024-03-23T04:15:10;95299.34;;;13.72;100.00
2397;BME280;1209;48.410;9.054;2024-03-23T04:17:36;95294.69;;;13.74;100.00
2397;BME280;1209;48.410;9.054;2024-03-23T04:20:02;95292.00;;;13.81;100.00
2397;BME280;1209;48.410;9.054;2024-03-23T04:22:29;95280.47;;;13.82;100.00
2397;BME280;1209;48.410;9.054;2024-03-23T04:24:57;95282.53;;;13.80;100.00
2397;BME280;1209;48.410;9.054;2024-03-23T04:27:24;95270.84;;;13.76;100.00
2397;BME280;1209;48.410;9.054;2024-03-23T04:29:50;95265.97;;;13.79;100.00
2397;BME280;1209;48.410;9.054;2024-03-23T04:32:16;95247.03;;;13.77;100.00
2397;BME280;1209;48.410;9.054;2024-03-23T04:34:43;95240.31;;;13.81;100.00
2397;BME280;1209;48.410;9.054;2024-03-23T04:37:08;95237.75;;;13.93;99.14
2397;BME280;1209;48.410;9.054;2024-03-23T04:39:35;95244.97;;;13.98;98.44
2397;BME280;1209;48.410;9.054;2024-03-23T04:42:00;95238.47;;;14.00;97.91
2397;BME280;1209;48.410;9.054;2024-03-23T04:44:26;95230.66;;;13.94;98.84
2397;BME280;1209;48.410;9.054;2024-03-23T04:46:51;95230.16;;;14.03;97.44
2397;BME280;1209;48.410;9.054;2024-03-23T04:49:19;95232.53;;;14.05;97.39
2397;BME280;1209;48.410;9.054;2024-03-23T04:51:44;95221.47;;;14.03;97.22
2397;BME280;1209;48.410;9.054;2024-03-23T04:54:12;95226.06;;;14.07;96.97
2397;BME280;1209;48.410;9.054;2024-03-23T04:56:37;95228.81;;;14.12;96.97
2397;BME280;1209;48.410;9.054;2024-03-23T04:59:02;95223.78;;;14.11;96.97
2397;BME280;1209;48.410;9.054;2024-03-23T05:01:32;95231.22;;;14.14;97.69
2397;BME280;1209;48.410;9.054;2024-03-23T05:03:58;95238.59;;;14.24;97.45
2397;BME280;1209;48.410;9.054;2024-03-23T05:06:24;95241.00;;;14.25;97.19
2397;BME280;1209;48.410;9.054;2024-03-23T05:08:50;95235.28;;;14.28;97.87
2397;BME280;1209;48.410;9.054;2024-03-23T05:11:16;95238.00;;;14.22;98.07
2397;BME280;1209;48.410;9.054;2024-03-23T05:13:42;95229.91;;;14.23;98.28
2397;BME280;1209;48.410;9.054;2024-03-23T05:16:07;95225.81;;;14.27;98.73
2397;BME280;1209;48.410;9.054;2024-03-23T05:18:34;95222.47;;;14.20;99.29
2397;BME280;1209;48.410;9.054;2024-03-23T05:20:59;95215.97;;;14.23;100.00
2397;BME280;1209;48.410;9.054;2024-03-23T05:23:25;95204.66;;;14.22;100.00
2397;BME280;1209;48.410;9.054;2024-03-23T05:25:51;95199.41;;;14.22;100.00
2397;BME280;1209;48.410;9.054;2024-03-23T05:28:20;95203.88;;;14.22;100.00
2397;BME280;1209;48.410;9.054;2024-03-23T05:30:55;95248.13;;;14.18;100.00
2397;BME280;1209;48.410;9.054;2024-03-23T05:33:22;95284.19;;;13.93;100.00
2397;BME280;1209;48.410;9.054;2024-03-23T05:35:56;95331.44;;;12.93;100.00
2397;BME280;1209;48.410;9.054;2024-03-23T05:38:22;95349.38;;;12.07;100.00
2397;BME280;1209;48.410;9.054;2024-03-23T05:40:57;95362.13;;;11.83;100.00
2397;BME280;1209;48.410;9.054;2024-03-23T05:43:23;95361.13;;;11.51;100.00
2397;BME280;1209;48.410;9.054;2024-03-23T05:45:55;95388.06;;;11.45;100.00
2397;BME280;1209;48.410;9.054;2024-03-23T05:48:21;95396.09;;;11.24;100.00
2397;BME280;1209;48.410;9.054;2024-03-23T05:50:48;95410.75;;;11.12;100.00
2397;BME280;1209;48.410;9.054;2024-03-23T05:53:17;95414.75;;;11.01;100.00
2397;BME280;1209;48.410;9.054;2024-03-23T05:55:44;95416.91;;;10.78;100.00
2397;BME280;1209;48.410;9.054;2024-03-23T05:58:10;95423.31;;;10.68;100.00
2397;BME280;1209;48.410;9.054;2024-03-23T06:00:35;95424.31;;;10.67;100.00
2397;BME280;1209;48.410;9.054;2024-03-23T06:03:00;95437.91;;;10.56;100.00
2397;BME280;1209;48.410;9.054;2024-03-23T06:05:27;95447.63;;;10.34;100.00
2397;BME280;1209;48.410;9.054;2024-03-23T06:07:53;95447.63;;;10.34;100.00
2397;BME280;1209;48.410;9.054;2024-03-23T06:10:18;95446.00;;;10.27;100.00
2397;BME280;1209;48.410;9.054;2024-03-23T06:12:45;95450.00;;;10.23;100.00
2397;BME280;1209;48.410;9.054;2024-03-23T06:15:11;95449.78;;;10.24;100.00
2397;BME280;1209;48.410;9.054;2024-03-23T06:17:36;95456.13;;;10.15;100.00
2397;BME280;1209;48.410;9.054;2024-03-23T06:20:03;95458.00;;;10.21;100.00
2397;BME280;1209;48.410;9.054;2024-03-23T06:22:28;95468.19;;;10.16;100.00
2397;BME280;1209;48.410;9.054;2024-03-23T06:24:53;95471.88;;;10.22;100.00
2397;BME280;1209;48.410;9.054;2024-03-23T06:27:19;95470.16;;;10.07;100.00
2397;BME280;1209;48.410;9.054;2024-03-23T06:29:44;95483.34;;;9.99;100.00
2397;BME280;1209;48.410;9.054;2024-03-23T06:32:09;95479.34;;;10.03;100.00
2397;BME280;1209;48.410;9.054;2024-03-23T06:34:36;95488.16;;;10.02;100.00
2397;BME280;1209;48.410;9.054;2024-03-23T06:37:01;95481.34;;;10.01;100.00
2397;BME280;1209;48.410;9.054;2024-03-23T06:39:28;95496.41;;;10.06;100.00
2397;BME280;1209;48.410;9.054;2024-03-23T06:41:54;95500.09;;;9.90;100.00
2397;BME280;1209;48.410;9.054;2024-03-23T06:44:20;95517.50;;;9.83;100.00
2397;BME280;1209;48.410;9.054;2024-03-23T06:46:46;95532.72;;;9.79;100.00
2397;BME280;1209;48.410;9.054;2024-03-23T06:49:11;95537.13;;;9.79;100.00
2397;BME280;1209;48.410;9.054;2024-03-23T06:51:37;95541.66;;;9.70;100.00
2397;BME280;1209;48.410;9.054;2024-03-23T06:54:05;95537.13;;;9.58;100.00
2397;BME280;1209;48.410;9.054;2024-03-23T06:56:31;95530.91;;;9.37;100.00
2397;BME280;1209;48.410;9.054;2024-03-23T06:58:57;95530.41;;;9.27;100.00
2397;BME280;1209;48.410;9.054;2024-03-23T07:01:22;95533.06;;;9.12;100.00
2397;BME280;1209;48.410;9.054;2024-03-23T07:03:47;95546.31;;;9.18;100.00
2397;BME280;1209;48.410;9.054;2024-03-23T07:06:13;95542.97;;;9.02;100.00
2397;BME280;1209;48.410;9.054;2024-03-23T07:08:38;95552.56;;;9.02;100.00
2397;BME280;1209;48.410;9.054;2024-03-23T07:11:04;95558.75;;;9.01;100.00
2397;BME280;1209;48.410;9.054;2024-03-23T07:13:32;95559.47;;;8.95;100.00
2397;BME280;1209;48.410;9.054;2024-03-23T07:15:57;95569.81;;;9.03;100.00
2397;BME280;1209;48.410;9.054;2024-03-23T07:18:25;95569.06;;;9.09;100.00
2397;BME280;1209;48.410;9.054;2024-03-23T07:20:56;95567.59;;;9.21;100.00
2397;BME280;1209;48.410;9.054;2024-03-23T07:23:25;95577.22;;;9.21;100.00
2397;BME280;1209;48.410;9.054;2024-03-23T07:26:16;95587.00;;;9.19;100.00
2397;BME280;1209;48.410;9.054;2024-03-23T07:28:43;95581.88;;;9.25;100.00
2397;BME280;1209;48.410;9.054;2024-03-23T07:31:11;95578.53;;;9.31;100.00
2397;BME280;1209;48.410;9.054;2024-03-23T07:33:41;95580.97;;;9.33;100.00
2397;BME280;1209;48.410;9.054;2024-03-23T07:36:06;95594.06;;;9.39;100.00
2397;BME280;1209;48.410;9.054;2024-03-23T07:38:32;95610.50;;;9.40;100.00
2397;BME280;1209;48.410;9.054;2024-03-23T07:41:11;95608.66;;;9.19;100.00
2397;BME280;1209;48.410;9.054;2024-03-23T07:43:37;95612.09;;;9.05;100.00
2397;BME280;1209;48.410;9.054;2024-03-23T07:46:04;95619.09;;;9.04;100.00
2397;BME280;1209;48.410;9.054;2024-03-23T07:48:29;95616.69;;;9.03;100.00
2397;BME280;1209;48.410;9.054;2024-03-23T07:53:27;95632.66;;;9.00;100.00
2397;BME280;1209;48.410;9.054;2024-03-23T07:55:58;95633.66;;;8.99;100.00
2397;BME280;1209;48.410;9.054;2024-03-23T07:58:24;95635.81;;;9.10;100.00
2397;BME280;1209;48.410;9.054;2024-03-23T08:00:50;95642.25;;;9.14;100.00
2397;BME280;1209;48.410;9.054;2024-03-23T08:03:16;95658.00;;;9.06;100.00
2397;BME280;1209;48.410;9.054;2024-03-23T08:05:41;95670.72;;;9.15;100.00
2397;BME280;1209;48.410;9.054;2024-03-23T08:08:07;95682.16;;;9.00;100.00
2397;BME280;1209;48.410;9.054;2024-03-23T08:10:32;95691.16;;;8.74;100.00
2397;BME280;1209;48.410;9.054;2024-03-23T08:12:58;95710.56;;;8.72;100.00
2397;BME280;1209;48.410;9.054;2024-03-23T08:15:24;95729.72;;;8.56;100.00
2397;BME280;1209;48.410;9.054;2024-03-23T08:17:50;95715.09;;;8.55;100.00
2397;BME280;1209;48.410;9.054;2024-03-23T08:20:16;95726.88;;;8.66;100.00
2397;BME280;1209;48.410;9.054;2024-03-23T08:22:41;95719.97;;;8.73;100.00
2397;BME280;1209;48.410;9.054;2024-03-23T08:25:07;95711.13;;;8.97;100.00
2397;BME280;1209;48.410;9.054;2024-03-23T08:27:33;95717.94;;;8.98;100.00
2397;BME280;1209;48.410;9.054;2024-03-23T08:29:58;95744.50;;;8.78;100.00
2397;BME280;1209;48.410;9.054;2024-03-23T08:32:23;95756.06;;;8.76;100.00
2397;BME280;1209;48.410;9.054;2024-03-23T08:34:49;95763.50;;;8.64;100.00
2397;BME280;1209;48.410;9.054;2024-03-23T08:37:14;95793.56;;;8.67;100.00
2397;BME280;1209;48.410;9.054;2024-03-23T08:39:39;95794.16;;;8.54;100.00
2397;BME280;1209;48.410;9.054;2024-03-23T08:42:05;95799.22;;;8.47;100.00
2397;BME280;1209;48.410;9.054;2024-03-23T08:44:30;95822.94;;;8.52;100.00
2397;BME280;1209;48.410;9.054;2024-03-23T08:46:56;95824.06;;;8.58;100.00
2397;BME280;1209;48.410;9.054;2024-03-23T08:49:21;95830.66;;;8.69;100.00
2397;BME280;1209;48.410;9.054;2024-03-23T08:51:46;95838.09;;;8.72;100.00
2397;BME280;1209;48.410;9.054;2024-03-23T08:54:13;95846.66;;;8.80;100.00
2397;BME280;1209;48.410;9.054;2024-03-23T08:56:38;95852.38;;;8.76;100.00
2397;BME280;1209;48.410;9.054;2024-03-23T08:59:03;95850.94;;;8.73;100.00
2397;BME280;1209;48.410;9.054;2024-03-23T09:01:29;95842.63;;;9.01;100.00
2397;BME280;1209;48.410;9.054;2024-03-23T09:03:54;95847.88;;;9.30;100.00
2397;BME280;1209;48.410;9.054;2024-03-23T09:06:19;95851.09;;;9.85;100.00
2397;BME280;1209;48.410;9.054;2024-03-23T09:08:46;95844.75;;;10.53;100.00
2397;BME280;1209;48.410;9.054;2024-03-23T09:11:12;95840.47;;;10.45;100.00
2397;BME280;1209;48.410;9.054;2024-03-23T09:13:38;95837.44;;;10.84;100.00
2397;BME280;1209;48.410;9.054;2024-03-23T09:16:05;95835.44;;;10.86;100.00
2397;BME280;1209;48.410;9.054;2024-03-23T09:18:34;95842.47;;;11.56;100.00
2397;BME280;1209;48.410;9.054;2024-03-23T09:21:11;95853.34;;;11.32;100.00
2397;BME280;1209;48.410;9.054;2024-03-23T09:23:36;95854.59;;;10.36;100.00
2397;BME280;1209;48.410;9.054;2024-03-23T09:26:06;95857.47;;;9.67;100.00
2397;BME280;1209;48.410;9.054;2024-03-23T09:28:32;95865.94;;;9.55;100.00
2397;BME280;1209;48.410;9.054;2024-03-23T09:31:05;95881.06;;;9.36;100.00
2397;BME280;1209;48.410;9.054;2024-03-23T09:33:30;95876.56;;;8.84;100.00
2397;BME280;1209;48.410;9.054;2024-03-23T09:35:56;95874.88;;;8.38;100.00
2397;BME280;1209;48.410;9.054;2024-03-23T09:38:25;95869.34;;;8.95;100.00
2397;BME280;1209;48.410;9.054;2024-03-23T09:40:53;95870.72;;;8.82;100.00
2397;BME280;1209;48.410;9.054;2024-03-23T09:43:18;95861.56;;;9.32;100.00
2397;BME280;1209;48.410;9.054;2024-03-23T09:45:45;95865.13;;;9.69;100.00
2397;BME280;1209;48.410;9.054;2024-03-23T09:48:11;95859.94;;;9.98;100.00
2397;BME280;1209;48.410;9.054;2024-03-23T09:50:42;95860.72;;;10.28;100.00
2397;BME280;1209;48.410;9.054;2024-03-23T09:53:08;95859.97;;;10.49;100.00
2397;BME280;1209;48.410;9.054;2024-03-23T09:55:34;95861.16;;;10.47;100.00
2397;BME280;1209;48.410;9.054;2024-03-23T09:58:03;95862.06;;;10.39;100.00
2397;BME280;1209;48.410;9.054;2024-03-23T10:00:30;95865.75;;;9.86;100.00
2397;BME280;1209;48.410;9.054;2024-03-23T10:02:55;95849.84;;;9.66;100.00
2397;BME280;1209;48.410;9.054;2024-03-23T10:05:23;95838.84;;;9.41;100.00
2397;BME280;1209;48.410;9.054;2024-03-23T10:07:51;95824.84;;;9.86;100.00
2397;BME280;1209;48.410;9.054;2024-03-23T10:10:18;95833.19;;;10.40;100.00
2397;BME280;1209;48.410;9.054;2024-03-23T10:12:50;95826.72;;;10.22;100.00
2397;BME280;1209;48.410;9.054;2024-03-23T10:15:23;95828.53;;;10.06;100.00
2397;BME280;1209;48.410;9.054;2024-03-23T10:17:50;95832.94;;;9.76;100.00
2397;BME280;1209;48.410;9.054;2024-03-23T10:20:22;95829.88;;;9.58;100.00
2397;BME280;1209;48.410;9.054;2024-03-23T10:22:49;95834.38;;;9.64;100.00
2397;BME280;1209;48.410;9.054;2024-03-23T10:25:16;95825.75;;;9.64;100.00
2397;BME280;1209;48.410;9.054;2024-03-23T10:27:41;95834.09;;;9.89;99.94
2397;BME280;1209;48.410;9.054;2024-03-23T10:30:10;95827.78;;;10.42;98.78
2397;BME280;1209;48.410;9.054;2024-03-23T10:32:37;95835.00;;;11.25;93.82
2397;BME280;1209;48.410;9.054;2024-03-23T10:35:16;95828.94;;;11.25;86.61
2397;BME280;1209;48.410;9.054;2024-03-23T10:37:44;95831.41;;;11.54;90.78
2397;BME280;1209;48.410;9.054;2024-03-23T10:40:12;95829.78;;;11.81;83.80
2397;BME280;1209;48.410;9.054;2024-03-23T10:42:38;95838.34;;;11.75;84.23
2397;BME280;1209;48.410;9.054;2024-03-23T10:45:04;95819.84;;;12.05;78.16
2397;BME280;1209;48.410;9.054;2024-03-23T10:47:32;95820.66;;;12.05;79.89
2397;BME280;1209;48.410;9.054;2024-03-23T10:49:57;95814.06;;;12.22;77.46
2397;BME280;1209;48.410;9.054;2024-03-23T10:52:23;95813.13;;;11.89;75.00
2397;BME280;1209;48.410;9.054;2024-03-23T10:54:51;95816.78;;;12.49;79.60
2397;BME280;1209;48.410;9.054;2024-03-23T10:57:31;95823.09;;;12.13;78.60
2397;BME280;1209;48.410;9.054;2024-03-23T10:59:59;95829.88;;;11.94;75.93
2397;BME280;1209;48.410;9.054;2024-03-23T11:02:27;95838.69;;;11.87;78.81
2397;BME280;1209;48.410;9.054;2024-03-23T11:04:55;95857.16;;;11.57;83.23
2397;BME280;1209;48.410;9.054;2024-03-23T11:09:48;95882.75;;;8.21;100.00
2397;BME280;1209;48.410;9.054;2024-03-23T11:15:04;95887.16;;;7.09;100.00
2397;BME280;1209;48.410;9.054;2024-03-23T11:17:30;95886.66;;;6.81;100.00
2397;BME280;1209;48.410;9.054;2024-03-23T11:19:58;95885.69;;;6.66;100.00
2397;BME280;1209;48.410;9.054;2024-03-23T11:27:37;95928.91;;;6.49;100.00
2397;BME280;1209;48.410;9.054;2024-03-23T11:30:21;95923.63;;;6.16;100.00
2397;BME280;1209;48.410;9.054;2024-03-23T11:32:48;95930.72;;;6.14;100.00
2397;BME280;1209;48.410;9.054;2024-03-23T11:35:37;95933.13;;;6.08;100.00
2397;BME280;1209;48.410;9.054;2024-03-23T11:38:16;95941.47;;;5.93;100.00
2397;BME280;1209;48.410;9.054;2024-03-23T11:40:46;95951.69;;;5.95;100.00
2397;BME280;1209;48.410;9.054;2024-03-23T11:43:17;95958.34;;;5.97;100.00
2397;BME280;1209;48.410;9.054;2024-03-23T11:45:50;95967.63;;;5.82;100.00
2397;BME280;1209;48.410;9.054;2024-03-23T11:48:22;95977.34;;;5.62;100.00
2397;BME280;1209;48.410;9.054;2024-03-23T11:50:49;95972.75;;;5.56;100.00
2397;BME280;1209;48.410;9.054;2024-03-23T11:53:16;95974.19;;;5.51;100.00
2397;BME280;1209;48.410;9.054;2024-03-23T11:55:45;95969.72;;;5.61;100.00
2397;BME280;1209;48.410;9.054;2024-03-23T11:58:11;95953.66;;;5.75;100.00
2397;BME280;1209;48.410;9.054;2024-03-23T12:00:36;95951.41;;;5.80;100.00
2397;BME280;1209;48.410;9.054;2024-03-23T12:03:02;95940.28;;;5.88;100.00
2397;BME280;1209;48.410;9.054;2024-03-23T12:05:29;95948.00;;;5.80;100.00
2397;BME280;1209;48.410;9.054;2024-03-23T12:07:55;95945.88;;;5.75;100.00
2397;BME280;1209;48.410;9.054;2024-03-23T12:10:20;95945.69;;;5.68;100.00
2397;BME280;1209;48.410;9.054;2024-03-23T12:12:46;95932.41;;;5.72;100.00
2397;BME280;1209;48.410;9.054;2024-03-23T12:15:14;95940.03;;;5.73;100.00
2397;BME280;1209;48.410;9.054;2024-03-23T12:17:40;95945.72;;;5.77;100.00
2397;BME280;1209;48.410;9.054;2024-03-23T12:20:05;95952.31;;;5.71;100.00
2397;BME280;1209;48.410;9.054;2024-03-23T12:22:32;95938.22;;;5.48;100.00
2397;BME280;1209;48.410;9.054;2024-03-23T12:24:59;95937.16;;;5.32;100.00
2397;BME280;1209;48.410;9.054;2024-03-23T12:27:24;95938.53;;;5.45;100.00
2397;BME280;1209;48.410;9.054;2024-03-23T12:29:50;95937.88;;;5.43;100.00
2397;BME280;1209;48.410;9.054;2024-03-23T12:32:15;95926.19;;;5.64;100.00
2397;BME280;1209;48.410;9.054;2024-03-23T12:34:41;95930.41;;;5.65;100.00
2397;BME280;1209;48.410;9.054;2024-03-23T12:37:07;95922.13;;;5.88;100.00
2397;BME280;1209;48.410;9.054;2024-03-23T12:39:33;95917.84;;;5.96;100.00
2397;BME280;1209;48.410;9.054;2024-03-23T12:42:00;95907.00;;;6.01;100.00
2397;BME280;1209;48.410;9.054;2024-03-23T12:44:25;95916.72;;;6.41;100.00
2397;BME280;1209;48.410;9.054;2024-03-23T12:46:51;95922.59;;;6.51;100.00
2397;BME280;1209;48.410;9.054;2024-03-23T12:49:17;95927.59;;;6.45;100.00
2397;BME280;1209;48.410;9.054;2024-03-23T12:51:52;95911.38;;;6.35;100.00
2397;BME280;1209;48.410;9.054;2024-03-23T12:54:18;95917.47;;;6.68;100.00
2397;BME280;1209;48.410;9.054;2024-03-23T12:56:45;95910.53;;;7.09;100.00
2397;BME280;1209;48.410;9.054;2024-03-23T12:59:10;95902.13;;;7.23;100.00
2397;BME280;1209;48.410;9.054;2024-03-23T13:01:36;95904.53;;;6.92;100.00
2397;BME280;1209;48.410;9.054;2024-03-23T13:04:02;95899.69;;;7.21;100.00
2397;BME280;1209;48.410;9.054;2024-03-23T13:06:28;95902.13;;;7.23;100.00
2397;BME280;1209;48.410;9.054;2024-03-23T13:08:57;95892.34;;;7.49;100.00
2397;BME280;1209;48.410;9.054;2024-03-23T13:11:22;95882.75;;;7.50;100.00
2397;BME280;1209;48.410;9.054;2024-03-23T13:13:47;95891.53;;;7.65;100.00
2397;BME280;1209;48.410;9.054;2024-03-23T13:16:14;95888.16;;;8.04;100.00
2397;BME280;1209;48.410;9.054;2024-03-23T13:18:39;95889.25;;;8.17;100.00
2397;BME280;1209;48.410;9.054;2024-03-23T13:21:04;95887.84;;;8.07;100.00
2397;BME280;1209;48.410;9.054;2024-03-23T13:23:30;95880.88;;;7.99;100.00
2397;BME280;1209;48.410;9.054;2024-03-23T13:25:56;95860.44;;;8.35;100.00
2397;BME280;1209;48.410;9.054;2024-03-23T13:28:22;95870.97;;;8.42;100.00
2397;BME280;1209;48.410;9.054;2024-03-23T13:30:55;95849.63;;;8.77;100.00
2397;BME280;1209;48.410;9.054;2024-03-23T13:33:20;95844.91;;;8.50;100.00
2397;BME280;1209;48.410;9.054;2024-03-23T13:35:52;95841.28;;;8.59;100.00
2397;BME280;1209;48.410;9.054;2024-03-23T13:38:19;95832.91;;;8.41;100.00
2397;BME280;1209;48.410;9.054;2024-03-23T13:40:55;95848.25;;;8.28;100.00
2397;BME280;1209;48.410;9.054;2024-03-23T13:43:21;95829.41;;;8.26;100.00
2397;BME280;1209;48.410;9.054;2024-03-23T13:45:49;95828.00;;;8.15;100.00
2397;BME280;1209;48.410;9.054;2024-03-23T13:48:23;95828.69;;;8.09;100.00
2397;BME280;1209;48.410;9.054;2024-03-23T13:51:02;95822.25;;;8.28;100.00
2397;BME280;1209;48.410;9.054;2024-03-23T13:53:29;95823.03;;;8.36;100.00
2397;BME280;1209;48.410;9.054;2024-03-23T13:55:54;95816.78;;;8.45;100.00
2397;BME280;1209;48.410;9.054;2024-03-23T13:58:20;95811.25;;;8.48;100.00
2397;BME280;1209;48.410;9.054;2024-03-23T14:00:46;95810.38;;;8.25;100.00
2397;BME280;1209;48.410;9.054;2024-03-23T14:03:13;95823.19;;;8.35;100.00
2397;BME280;1209;48.410;9.054;2024-03-23T14:05:39;95821.53;;;8.42;100.00
2397;BME280;1209;48.410;9.054;2024-03-23T14:08:08;95797.25;;;8.72;100.00
2397;BME280;1209;48.410;9.054;2024-03-23T14:10:34;95800.50;;;8.74;100.00
2397;BME280;1209;48.410;9.054;2024-03-23T14:13:01;95798.56;;;8.91;100.00
2397;BME280;1209;48.410;9.054;2024-03-23T14:15:27;95802.59;;;9.31;100.00
2397;BME280;1209;48.410;9.054;2024-03-23T14:17:52;95796.25;;;9.63;100.00
2397;BME280;1209;48.410;9.054;2024-03-23T14:20:17;95792.19;;;9.31;100.00
2397;BME280;1209;48.410;9.054;2024-03-23T14:22:43;95799.19;;;9.16;100.00
2397;BME280;1209;48.410;9.054;2024-03-23T14:25:09;95801.63;;;8.95;100.00